Latest Weather Observations for Walpeup

IDV60801

Issued at 9:32 pm EDT Monday 16 January 2017 (issued every 30 minutes, with the page automatically refreshed every 10 minutes)

About weather observations | Map of weather stations | Latest weather observations for VIC | Other Formats
Station Details ID: 076064 Name: WALPEUP RESEARCH Lat: -35.12 Lon: 142.00 Height: 105.0 m
Data from the previous 72 hours. | See also: Recent months at Walpeup
Date/Time
EDT
Temp
°C
App
Temp
°C
Dew
Point
°C
Rel
Hum
%
Delta-T
°C
Wind Press
QNH
hPa
Press
MSL
hPa
Rain since
9am
mm
Dir  Spd
km/h
Gust
km/h
Spd
kts
Gust
kts
16/09:30pm 29.5 27.2 0.2 15 14.1 SSW 2 4 1 2 - - 0.0
16/09:00pm 31.1 28.8 0.5 14 14.9 SSW 2 2 1 1 - - 0.0
16/08:30pm 34.3 31.5 -0.4 11 17.0 WSW 4 6 2 3 - - 0.0
16/08:00pm 37.1 34.6 -1.0 9 18.8 NW 2 4 1 2 - - 0.0
16/07:30pm 37.1 33.8 -1.0 9 18.8 NW 6 9 3 5 - - 0.0
16/07:00pm 37.6 34.6 -2.2 8 19.4 NW 4 7 2 4 - - 0.0
16/06:30pm 38.5 34.6 -1.6 8 19.8 WSW 9 17 5 9 - - 0.0
16/06:00pm 37.0 32.9 -2.7 8 19.1 W 9 15 5 8 - - 0.0
16/05:30pm 37.9 34.7 -0.4 9 19.2 WSW 6 17 3 9 - - 0.0
16/05:00pm 38.1 34.7 -0.3 9 19.3 SW 7 13 4 7 - - 0.0
16/04:30pm 36.0 32.2 -0.4 10 18.1 NNW 9 17 5 9 - - 0.0
16/04:00pm 37.2 32.6 -0.9 9 18.9 W 13 24 7 13 - - 0.0
16/03:30pm 36.5 33.4 0.0 10 18.3 W 6 13 3 7 - - 0.0
16/03:00pm 36.0 32.2 -0.4 10 18.1 NNW 9 24 5 13 - - 0.0
16/02:30pm 35.4 32.4 1.7 12 17.2 WSW 7 9 4 5 - - 0.0
16/02:00pm 34.1 30.7 1.8 13 16.4 NNE 9 19 5 10 - - 0.0
16/01:30pm 33.6 30.8 3.4 15 15.7 W 7 15 4 8 - - 0.0
16/01:00pm 32.8 29.9 2.8 15 15.4 NW 7 22 4 12 - - 0.0
16/12:30pm 31.6 28.9 3.6 17 14.4 N 7 17 4 9 - - 0.0
16/12:00pm 30.9 27.8 3.8 18 14.0 N 9 19 5 10 - - 0.0
16/11:30am 29.5 26.6 4.9 21 12.8 NNE 9 15 5 8 - - 0.0
16/11:00am 28.4 26.1 5.9 24 11.8 NNE 7 15 4 8 - - 0.0
16/10:30am 28.0 25.7 7.3 27 11.1 NE 9 13 5 7 - - 0.0
16/10:00am 26.1 23.7 8.6 33 9.5 NE 11 15 6 8 - - 0.0
16/09:30am 24.2 21.4 8.6 37 8.4 ENE 13 19 7 10 - - 0.0
16/09:00am 21.8 18.8 9.3 45 6.7 ENE 15 19 8 10 - - 0.0
16/08:30am 20.1 17.1 9.1 49 5.8 E 15 20 8 11 - - 0.0
16/08:00am 19.0 16.3 8.9 52 5.3 E 13 20 7 11 - - 0.0
16/07:30am 17.1 14.3 8.5 57 4.4 E 13 19 7 10 - - 0.0
16/07:00am 15.8 12.9 8.1 60 3.9 E 13 19 7 10 - - 0.0
16/06:30am 15.9 12.9 7.9 59 4.0 ESE 13 19 7 10 - - 0.0
16/06:00am 16.3 13.7 7.8 57 4.3 ESE 11 17 6 9 - - 0.0
16/05:30am 16.8 14.2 7.7 55 4.6 ESE 11 17 6 9 - - 0.0
16/05:00am 17.1 14.1 7.7 54 4.8 ESE 13 19 7 10 - - 0.0
16/04:30am 17.8 14.4 7.8 52 5.1 SE 15 19 8 10 - - 0.0
16/04:00am 18.3 15.3 7.7 50 5.4 SE 13 19 7 10 - - 0.0
16/03:30am 17.9 15.2 7.3 50 5.4 SSE 11 13 6 7 - - 0.0
16/03:00am 18.4 16.0 7.2 48 5.7 SSE 9 11 5 6 - - 0.0
16/02:30am 18.9 16.5 7.0 46 6.0 SSE 9 13 5 7 - - 0.0
16/02:00am 19.4 16.6 6.8 44 6.4 SSE 11 13 6 7 - - 0.0
16/01:30am 19.9 17.0 6.3 41 6.8 S 11 13 6 7 - - 0.0
16/01:00am 20.5 17.9 6.1 39 7.2 SSE 9 11 5 6 - - 0.0
16/12:30am 20.9 18.2 5.7 37 7.6 S 9 11 5 6 - - 0.0
16/12:00am 21.3 18.6 5.6 36 7.9 S 9 9 5 5 - - 0.0
 
Date/Time
EDT
Temp
°C
App
Temp
°C
Dew
Point
°C
Rel
Hum
%
Delta-T
°C
Wind Press
QNH
hPa
Press
MSL
hPa
Rain since
9am
mm
Dir  Spd
km/h
Gust
km/h
Spd
kts
Gust
kts
15/11:30pm 22.1 19.4 5.5 34 8.3 SSE 9 13 5 7 - - 0.0
15/11:00pm 22.8 19.7 5.7 33 8.7 SSE 11 13 6 7 - - 0.0
15/10:30pm 22.6 20.4 6.0 34 8.4 SSE 7 9 4 5 - - 0.0
15/10:00pm 23.4 21.3 5.8 32 9.0 S 6 7 3 4 - - 0.0
15/09:30pm 24.6 22.2 5.4 29 9.8 S 7 9 4 5 - - 0.0
15/09:00pm 25.5 23.1 5.1 27 10.4 S 7 9 4 5 - - 0.0
15/08:30pm 27.6 24.8 5.2 24 11.6 S 9 13 5 7 - - 0.0
15/08:00pm 28.8 25.7 5.6 23 12.2 SSW 11 15 6 8 - - 0.0
15/07:30pm 29.3 26.6 5.4 22 12.5 SSW 9 19 5 10 - - 0.0
15/07:00pm 29.8 26.2 5.1 21 12.9 SSW 13 22 7 12 - - 0.0
15/06:30pm 29.8 26.2 5.1 21 12.9 SW 13 22 7 12 - - 0.0
15/06:00pm 29.8 26.4 5.8 22 12.7 S 13 24 7 13 - - 0.0
15/05:30pm 29.8 26.5 6.5 23 12.5 SSW 13 17 7 9 - - 0.0
15/05:00pm 29.1 25.8 6.5 24 12.1 SSW 13 22 7 12 - - 0.0
15/04:30pm 29.4 26.4 6.1 23 12.4 SW 11 19 6 10 - - 0.0
15/04:00pm 28.9 25.3 5.1 22 12.4 SSW 13 24 7 13 - - 0.0
15/03:30pm 28.0 25.3 3.7 21 12.3 SSW 7 17 4 9 - - 0.0
15/03:00pm 28.2 25.3 6.3 25 11.6 SSW 11 30 6 16 - - 0.0
15/02:30pm 27.0 24.5 6.4 27 10.8 S 9 17 5 9 - - 0.0
15/02:00pm 26.4 23.5 6.4 28 10.5 SSW 11 20 6 11 - - 0.0
15/01:30pm 24.8 22.7 6.5 31 9.5 SSW 7 20 4 11 - - 0.0
15/01:00pm 24.1 21.6 6.4 32 9.2 SW 9 19 5 10 - - 0.0
15/12:30pm 23.3 21.1 7.8 37 8.2 SSW 9 15 5 8 - - 0.0
15/12:00pm 21.8 20.0 8.0 41 7.2 S 7 17 4 9 - - 0.0
15/11:30am 21.0 18.5 8.0 43 6.8 SSW 11 20 6 11 - - 0.0
15/11:00am 19.8 17.7 8.2 47 6.0 S 9 20 5 11 - - 0.0
15/10:30am 18.7 16.6 8.1 50 5.5 S 9 19 5 10 - - 0.0
15/10:00am 18.2 15.7 8.2 52 5.2 SE 11 17 6 9 - - 0.0
15/09:30am 17.0 13.3 7.9 55 4.6 SSE 17 22 9 12 - - 0.0
15/09:00am 16.2 12.6 8.4 60 4.0 SE 17 22 9 12 - - 0.2
15/08:30am 15.3 13.1 9.2 67 3.1 SSE 11 17 6 9 - - -
15/08:00am 13.3 11.5 9.4 77 2.0 S 9 13 5 7 - - -
15/07:30am 12.1 10.6 9.1 82 1.5 S 7 11 4 6 - - 0.2
15/07:00am 11.5 9.6 8.9 84 1.3 SSE 9 13 5 7 - - 0.2
15/06:30am 11.7 9.0 9.1 84 1.3 SSE 13 17 7 9 - - 0.2
15/06:00am 11.8 9.1 9.0 83 1.4 SSE 13 17 7 9 - - 0.2
15/05:30am 11.8 9.2 9.4 85 1.2 S 13 17 7 9 - - 0.2
15/05:00am 11.6 9.7 9.2 85 1.2 SSW 9 13 5 7 - - 0.2
15/04:30am 11.5 10.6 9.1 85 1.2 SSW 4 6 2 3 - - 0.2
15/04:00am 12.1 10.8 9.3 83 1.4 SSW 6 7 3 4 - - 0.2
15/03:30am 12.7 11.2 9.3 80 1.7 SSW 7 9 4 5 - - 0.2
15/03:00am 13.3 11.1 9.4 77 2.0 SSW 11 13 6 7 - - 0.2
15/02:30am 14.0 11.0 9.4 74 2.4 SSW 15 19 8 10 - - 0.2
15/02:00am 14.5 11.2 9.5 72 2.6 SSW 17 22 9 12 - - 0.2
15/01:30am 14.9 12.0 9.7 71 2.7 SSW 15 22 8 12 - - 0.2
15/01:00am 15.4 12.6 10.0 70 2.8 SSW 15 20 8 11 - - 0.2
15/12:30am 15.7 13.2 9.8 68 3.1 SSW 13 19 7 10 - - 0.2
15/12:00am 16.4 13.9 9.8 65 3.5 SW 13 15 7 8 - - 0.2
 
Date/Time
EDT
Temp
°C
App
Temp
°C
Dew
Point
°C
Rel
Hum
%
Delta-T
°C
Wind Press
QNH
hPa
Press
MSL
hPa
Rain since
9am
mm
Dir  Spd
km/h
Gust
km/h
Spd
kts
Gust
kts
14/11:30pm 17.4 14.2 9.8 61 4.0 SW 17 22 9 12 - - 0.2
14/11:00pm 17.6 14.7 9.8 60 4.1 SW 15 19 8 10 - - 0.2
14/10:30pm 18.1 15.6 9.7 58 4.5 SW 13 20 7 11 - - 0.2
14/10:00pm 19.1 15.8 9.6 54 5.1 SW 17 22 9 12 - - 0.2
14/09:30pm 19.9 16.2 9.5 51 5.6 SW 19 26 10 14 - - 0.2
14/09:00pm 20.5 17.8 8.8 47 6.2 SW 13 19 7 10 - - 0.2
14/08:30pm 21.6 17.7 8.8 44 6.8 SW 19 26 10 14 - - 0.2
14/08:00pm 22.7 18.3 9.1 42 7.3 SSW 22 30 12 16 - - 0.2
14/07:30pm 23.6 18.9 9.2 40 7.8 SW 24 35 13 19 - - 0.2
14/07:00pm 24.2 19.0 9.0 38 8.2 SW 26 37 14 20 - - 0.2
14/06:30pm 24.8 20.0 8.7 36 8.7 SW 24 33 13 18 - - 0.2
14/06:00pm 25.1 20.2 8.6 35 8.9 SW 24 37 13 20 - - 0.2
14/05:30pm 26.4 21.6 8.8 33 9.6 SW 24 35 13 19 - - 0.2
14/05:00pm 26.8 22.2 8.3 31 10.0 SW 22 35 12 19 - - 0.2
14/04:30pm 26.0 20.6 8.0 32 9.7 SW 26 35 14 19 - - 0.2
14/04:00pm 26.1 20.3 9.5 35 9.2 SW 30 43 16 23 - - 0.2
14/03:30pm 26.7 22.6 8.6 32 9.9 SW 20 32 11 17 - - 0.2
14/03:00pm 25.8 20.4 7.9 32 9.6 SW 26 39 14 21 - - 0.2
14/02:30pm 25.9 21.3 8.0 32 9.6 WSW 22 32 12 17 - - 0.2
14/02:00pm 25.0 20.5 8.5 35 8.9 WSW 22 33 12 18 - - 0.2
14/01:30pm 24.1 19.1 8.1 36 8.5 WSW 24 41 13 22 - - 0.2
14/01:00pm 24.0 20.0 9.2 39 8.0 SW 20 37 11 20 - - 0.2
14/12:30pm 22.5 18.7 9.0 42 7.2 WSW 19 26 10 14 - - 0.2
14/12:00pm 22.7 18.9 9.8 44 7.0 SW 20 32 11 17 - - 0.2
14/11:30am 21.2 17.3 9.4 47 6.3 SW 20 32 11 17 - - 0.0
14/11:00am 19.7 14.7 9.6 52 5.4 SW 26 33 14 18 - - 0.0
14/10:30am 19.9 13.5 9.5 51 5.6 SW 33 46 18 25 - - 0.0
14/10:00am 19.2 12.6 9.9 55 5.0 SW 35 46 19 25 - - 0.0
14/09:40am 19.0 12.9 9.8 55 4.9 SW 32 50 17 27 - - 0.0
14/09:30am 18.6 12.5 9.9 57 4.6 SW 32 44 17 24 - - 0.0
14/09:00am 17.6 11.6 10.2 62 4.0 WSW 32 41 17 22 - - 4.2
14/08:30am 16.8 12.3 11.3 70 3.0 WSW 26 35 14 19 - - 4.2
14/08:00am 15.9 11.8 11.5 75 2.4 SW 24 35 13 19 - - 4.2
14/07:30am 14.4 11.1 11.6 83 1.5 WSW 20 26 11 14 - - 4.2
14/07:00am 13.3 10.2 11.7 90 0.9 WSW 19 24 10 13 - - 4.2
14/06:30am 12.6 10.5 11.0 90 0.8 WSW 13 17 7 9 - - 4.2
14/06:00am 12.7 9.8 11.1 90 0.8 WSW 17 22 9 12 - - 4.2
14/05:30am 12.5 10.3 10.9 90 0.8 W 13 20 7 11 - - 4.2
14/05:00am 12.8 10.3 11.0 89 0.9 WSW 15 20 8 11 - - 4.2
14/04:30am 13.1 10.3 11.2 88 1.0 WSW 17 22 9 12 - - 4.2
14/04:00am 13.0 9.8 11.1 88 1.0 WSW 19 22 10 12 - - 4.2
14/03:30am 13.1 10.3 11.2 88 1.0 WSW 17 22 9 12 - - 4.2
14/03:00am 13.4 10.2 11.3 87 1.1 WSW 19 22 10 12 - - 4.2
14/02:30am 13.5 11.2 11.6 88 1.0 WSW 15 19 8 10 - - 4.2
14/02:00am 13.9 11.5 11.4 85 1.3 WSW 15 17 8 9 - - 4.2
14/01:30am 14.0 11.6 11.3 84 1.4 WSW 15 19 8 10 - - 4.2
14/01:00am 14.7 11.9 11.5 81 1.7 WSW 17 24 9 13 - - 4.2
14/12:30am 14.8 12.4 11.4 80 1.8 WSW 15 20 8 11 - - 4.2
14/12:00am 15.6 12.8 11.4 76 2.3 WSW 17 28 9 15 - - 4.2
 
Date/Time
EDT
Temp
°C
App
Temp
°C
Dew
Point
°C
Rel
Hum
%
Delta-T
°C
Wind Press
QNH
hPa
Press
MSL
hPa
Rain since
9am
mm
Dir  Spd
km/h
Gust
km/h
Spd
kts
Gust
kts
13/11:30pm 15.7 13.8 11.7 77 2.2 WSW 13 17 7 9 - - 4.2
13/11:00pm 16.5 14.2 11.9 74 2.5 WSW 15 20 8 11 - - 4.2
13/10:30pm 17.2 14.2 11.9 71 2.9 WSW 19 28 10 15 - - 4.2
13/10:00pm 17.9 14.8 12.1 69 3.2 WSW 20 28 11 15 - - 4.2

Other Formats:

Comma delimited format used in spreadsheet applications
http://www.bom.gov.au/fwo/IDV60801/IDV60801.95831.axf

JavaScript Object Notation format (JSON) in row-major order
http://www.bom.gov.au/fwo/IDV60801/IDV60801.95831.json